Colorado Springs, CO (80924)

11:05 AM MDT on August 27, 2016 (GMT -0600)
Briargate | | Change Station

Elev 6952 ft 38.96 °N, 104.76 °W | Updated 3 minutes ago

Clear
Clear
71.2 °F
Feels Like 76 °F
N
2.7
Wind Variable Wind from North

Today
High -- | Low -- °F
--% Chance of Precip.
Yesterday
High -- | Low -- °F
Precip. -- in
Pressure 29.97 in
Visibility 9.0 miles
Clouds Clear
Heat Index 76 °F
Dew Point 41 °F
Humidity 33%
Rainfall 0.00 in
Snow Depth Not available.
6:23 AM 7:36 PM
Waning Crescent, 23% visible
METAR KAFF 271658Z AUTO VRB04KT 9SM CLR 23/00 A3019 RMK AO2 SLP148 T02290001
Pressure 29.97 in
Visibility 9.0 miles
Clouds Clear
Heat Index 76 °F
Dew Point 41 °F
Humidity 33%
Rainfall 0.00 in
Snow Depth Not available.
6:23 AM 7:36 PM
Waning Crescent, 23% visible
METAR KAFF 271658Z AUTO VRB04KT 9SM CLR 23/00 A3019 RMK AO2 SLP148 T02290001

10-Day Weather Forecast

Almanac

Astronomy

Aug. 27, 2016 Rise Set
Actual Time
Civil Twilight
Nautical Twilight
Astronomical Twilight
Moon
Length of Visible Light
Length of Day
Tomorrow will be .
, % of the Moon is Illuminated

Today's Extremes

State Highs State Lows

Community

WunderPhotos

Upload Photos

1,935,383 photos uploaded!

WunderBlog® & News

Nearby

Air Quality

  Air Quality AQ Index Pollutant
Not available.

Snow Depth

Station Depth Elevation

Earthquake Activity

City Distance Mag. Time & Date
Minimum magnitude displayed is 2.5.

Coastal Water Temperatures

Place Temperature

Stations

Nearby Weather Stations

Station Location Temp. Windchill Dew Point Humidity Wind Precip. Elev Updated Type
                   

Watches & Warnings

There are currently no watches in effect.